createdAt,value
2022-10-23T00:00:03.969Z,99887.00
2022-10-23T00:02:06.357Z,99887.28
2022-10-23T00:04:20.325Z,99896.50
2022-10-23T00:06:22.857Z,99889.03
2022-10-23T00:08:24.927Z,99892.53
2022-10-23T00:10:28.957Z,99891.13
2022-10-23T00:12:31.124Z,99896.50
2022-10-23T00:14:36.478Z,99895.09
2022-10-23T00:16:38.703Z,99900.44
2022-10-23T00:18:41.012Z,99899.69
2022-10-23T00:20:43.190Z,99896.78
2022-10-23T00:22:45.500Z,99897.69
2022-10-23T00:24:47.816Z,99889.34
2022-10-23T00:26:51.099Z,99900.22
2022-10-23T00:28:54.469Z,99896.63
2022-10-23T00:30:56.901Z,99899.00
2022-10-23T00:32:59.008Z,99910.06
2022-10-23T00:35:01.331Z,99906.28
2022-10-23T00:37:03.460Z,99912.78
2022-10-23T00:39:06.532Z,99915.75
2022-10-23T00:41:14.935Z,99926.34
2022-10-23T00:43:23.148Z,99919.44
2022-10-23T00:45:27.437Z,99919.59
2022-10-23T00:47:31.971Z,99916.19
2022-10-23T00:49:34.647Z,99924.16
2022-10-23T00:51:43.330Z,99918.72
2022-10-23T00:54:01.408Z,99920.38
2022-10-23T00:56:15.214Z,99916.72
2022-10-23T00:58:20.483Z,99930.19
2022-10-23T01:00:32.091Z,99927.66
2022-10-23T01:02:35.014Z,99930.19
2022-10-23T01:04:38.058Z,99923.91
2022-10-23T01:07:15.943Z,99924.34
2022-10-23T01:09:42.618Z,99929.84
2022-10-23T01:12:07.760Z,99937.91
2022-10-23T01:14:18.817Z,99936.84
2022-10-23T01:16:27.269Z,99943.75
2022-10-23T01:18:41.670Z,99944.81
2022-10-23T01:20:43.811Z,99949.31
2022-10-23T01:22:45.754Z,99950.97
2022-10-23T01:25:14.118Z,99961.22
2022-10-23T01:27:25.384Z,99955.59
2022-10-23T01:29:39.413Z,99963.81
2022-10-23T01:31:57.121Z,99957.72
2022-10-23T01:34:06.383Z,99963.31
2022-10-23T01:36:12.969Z,99970.66
2022-10-23T01:38:27.492Z,99969.50
2022-10-23T01:40:44.588Z,99973.81
2022-10-23T01:42:51.014Z,99980.28
2022-10-23T01:45:31.639Z,99984.91
2022-10-23T01:47:38.677Z,99989.91
2022-10-23T01:49:44.870Z,99987.38
2022-10-23T01:51:51.971Z,99994.66
2022-10-23T01:53:58.650Z,100003.75
2022-10-23T01:56:03.055Z,99998.16
2022-10-23T01:58:08.695Z,100010.06
2022-10-23T02:00:19.016Z,99999.34
2022-10-23T02:02:28.776Z,100007.25
2022-10-23T02:04:41.408Z,100008.28
2022-10-23T02:06:43.918Z,100006.19
2022-10-23T02:08:46.280Z,100004.53
2022-10-23T02:11:14.501Z,100007.59
2022-10-23T02:13:25.775Z,100004.47
2022-10-23T02:15:36.387Z,100001.75
2022-10-23T02:18:03.701Z,100013.25
2022-10-23T02:20:08.901Z,100013.06
2022-10-23T02:22:26.441Z,100020.41
2022-10-23T02:24:36.725Z,100029.72
2022-10-23T02:26:47.093Z,100030.22
2022-10-23T02:28:58.624Z,100021.19
2022-10-23T02:31:04.035Z,100021.06
2022-10-23T02:33:09.263Z,100020.81
2022-10-23T02:35:13.466Z,100026.44
2022-10-23T02:37:15.965Z,100029.94
2022-10-23T02:39:18.360Z,100045.25
2022-10-23T02:41:20.320Z,100056.78
2022-10-23T02:43:32.567Z,100055.22
2022-10-23T02:46:00.816Z,100055.22
2022-10-23T02:48:27.716Z,100053.31
2022-10-23T02:51:05.043Z,100047.25
2022-10-23T02:53:19.139Z,100057.16
2022-10-23T02:55:49.958Z,100049.97
2022-10-23T02:58:17.741Z,100044.16
2022-10-23T03:00:24.244Z,100043.28
2022-10-23T03:02:33.380Z,100050.69
2022-10-23T03:04:37.485Z,100054.56
2022-10-23T03:06:39.785Z,100057.78
2022-10-23T03:08:44.287Z,100067.75
2022-10-23T03:10:46.403Z,100065.22
2022-10-23T03:12:49.070Z,100069.69
2022-10-23T03:14:51.794Z,100075.72
2022-10-23T03:16:54.404Z,100079.31
2022-10-23T03:19:00.824Z,100083.06
2022-10-23T03:21:04.795Z,100086.94
2022-10-23T03:23:13.747Z,100092.94
2022-10-23T03:25:16.099Z,100093.47
2022-10-23T03:28:20.681Z,100093.88
2022-10-23T03:30:23.546Z,100095.66
2022-10-23T03:32:29.555Z,100086.47
2022-10-23T03:34:32.102Z,100091.97
2022-10-23T03:36:37.041Z,100091.97
2022-10-23T03:38:39.966Z,100097.31
2022-10-23T03:40:43.303Z,100110.78
2022-10-23T03:42:47.478Z,100107.28
2022-10-23T03:44:53.981Z,100111.81
2022-10-23T03:46:56.568Z,100109.97
2022-10-23T03:48:59.516Z,100117.97
2022-10-23T03:51:05.388Z,100110.88
2022-10-23T03:53:07.399Z,100124.34
2022-10-23T03:55:09.811Z,100124.19
2022-10-23T03:57:12.375Z,100134.25
2022-10-23T03:59:14.437Z,100131.53
2022-10-23T04:01:16.588Z,100131.28
2022-10-23T04:03:20.513Z,100128.09
2022-10-23T04:05:22.726Z,100137.75
2022-10-23T04:07:29.923Z,100145.88
2022-10-23T04:09:36.227Z,100145.88
2022-10-23T04:11:39.044Z,100147.56
2022-10-23T04:13:41.009Z,100144.78
2022-10-23T04:15:50.683Z,100140.56
2022-10-23T04:17:52.903Z,100136.63
2022-10-23T04:19:55.357Z,100142.28
2022-10-23T04:21:57.431Z,100140.44
2022-10-23T04:23:59.768Z,100139.50
2022-10-23T04:26:02.373Z,100141.34
2022-10-23T04:28:04.851Z,100139.34
2022-10-23T04:30:12.703Z,100135.81
2022-10-23T04:32:14.863Z,100144.06
2022-10-23T04:34:19.663Z,100132.50
2022-10-23T04:36:22.000Z,100139.59
2022-10-23T04:38:24.132Z,100138.88
2022-10-23T04:40:25.983Z,100140.97
2022-10-23T04:42:29.965Z,100141.91
2022-10-23T04:44:35.205Z,100139.19
2022-10-23T04:46:37.986Z,100137.28
2022-10-23T04:48:40.613Z,100136.25
2022-10-23T04:51:18.425Z,100140.88
2022-10-23T04:53:31.146Z,100145.41
2022-10-23T04:56:06.174Z,100144.31
2022-10-23T04:58:21.385Z,100145.41
2022-10-23T05:00:24.696Z,100140.00
2022-10-23T05:02:29.372Z,100146.28
2022-10-23T05:04:32.083Z,100150.78
2022-10-23T05:07:12.713Z,100148.47
2022-10-23T05:09:37.641Z,100143.84
2022-10-23T05:12:02.892Z,100152.22
2022-10-23T05:14:05.559Z,100156.59
2022-10-23T05:16:07.518Z,100160.25
2022-10-23T05:18:17.905Z,100166.88
2022-10-23T05:20:23.921Z,100168.56
2022-10-23T05:22:30.680Z,100166.25
2022-10-23T05:24:33.383Z,100165.44
2022-10-23T05:26:37.461Z,100177.25
2022-10-23T05:28:42.797Z,100176.94
2022-10-23T05:30:49.477Z,100175.03
2022-10-23T05:32:55.397Z,100191.38
2022-10-23T05:35:03.095Z,100188.69
2022-10-23T05:37:09.075Z,100187.78
2022-10-23T05:39:13.350Z,100189.53
2022-10-23T05:44:50.154Z,100189.78
2022-10-23T05:47:16.121Z,100199.44
2022-10-23T05:49:41.042Z,100203.97
2022-10-23T05:52:15.645Z,100212.81
2022-10-23T05:54:28.155Z,100203.81
2022-10-23T05:56:37.013Z,100218.19
2022-10-23T05:59:05.549Z,100225.44
2022-10-23T06:01:25.613Z,100229.84
2022-10-23T06:03:36.246Z,100227.19
2022-10-23T06:05:41.056Z,100229.84
2022-10-23T06:08:03.944Z,100233.34
2022-10-23T06:10:06.887Z,100239.47
2022-10-23T06:12:14.206Z,100242.13
2022-10-23T06:14:19.951Z,100242.19
2022-10-23T06:16:26.181Z,100242.34
2022-10-23T06:18:29.134Z,100236.78
2022-10-23T06:20:39.500Z,100250.56
2022-10-23T06:22:46.836Z,100250.72
2022-10-23T06:25:09.674Z,100262.94
2022-10-23T06:27:11.778Z,100261.09
2022-10-23T06:29:18.231Z,100264.59
2022-10-23T06:31:21.826Z,100265.63
2022-10-23T06:33:25.795Z,100271.28
2022-10-23T06:35:28.054Z,100278.41
2022-10-23T06:37:30.048Z,100275.28
2022-10-23T06:39:41.541Z,100286.78
2022-10-23T06:41:53.096Z,100282.22
2022-10-23T06:44:13.670Z,100279.19
2022-10-23T06:46:24.489Z,100275.63
2022-10-23T06:49:38.439Z,100271.38
2022-10-23T06:51:41.697Z,100278.25
2022-10-23T06:53:47.580Z,100277.28
2022-10-23T06:56:09.174Z,100278.91
2022-10-23T06:58:12.143Z,100279.72
2022-10-23T07:00:40.625Z,100283.19
2022-10-23T07:02:43.626Z,100283.28
2022-10-23T07:04:45.673Z,100282.09
2022-10-23T07:06:54.759Z,100280.03
2022-10-23T07:09:00.723Z,100280.41
2022-10-23T07:11:23.535Z,100287.53
2022-10-23T07:13:26.115Z,100286.47
2022-10-23T07:15:46.846Z,100286.31
2022-10-23T07:17:54.058Z,100294.56
2022-10-23T07:19:57.726Z,100285.63
2022-10-23T07:22:00.031Z,100293.66
2022-10-23T07:24:13.776Z,100289.03
2022-10-23T07:26:17.095Z,100282.72
2022-10-23T07:28:19.540Z,100282.72
2022-10-23T07:30:21.482Z,100287.09
2022-10-23T07:32:28.751Z,100291.72
2022-10-23T07:34:49.653Z,100286.84
2022-10-23T07:37:00.478Z,100295.78
2022-10-23T07:39:02.757Z,100306.41
2022-10-23T07:41:08.986Z,100292.00
2022-10-23T07:43:14.021Z,100294.69
2022-10-23T07:45:16.107Z,100301.22
2022-10-23T07:47:20.015Z,100301.28
2022-10-23T07:49:25.580Z,100299.53
2022-10-23T07:51:27.510Z,100295.97
2022-10-23T07:53:35.622Z,100295.09
2022-10-23T07:55:58.077Z,100296.03
2022-10-23T07:58:02.353Z,100292.22
2022-10-23T08:00:18.604Z,100298.19
2022-10-23T08:02:30.837Z,100291.72
2022-10-23T08:04:32.771Z,100288.56
2022-10-23T08:06:41.406Z,100289.25
2022-10-23T08:10:53.477Z,100290.22
2022-10-23T08:13:01.590Z,100298.22
2022-10-23T08:15:23.437Z,100293.91
2022-10-23T08:17:30.169Z,100293.13
2022-10-23T08:19:48.551Z,100296.47
2022-10-23T08:21:54.868Z,100305.53
2022-10-23T08:23:58.102Z,100309.81
2022-10-23T08:26:05.556Z,100307.88
2022-10-23T08:28:11.912Z,100307.84
2022-10-23T08:30:25.271Z,100306.84
2022-10-23T08:32:31.211Z,100302.41
2022-10-23T08:34:34.775Z,100311.41
2022-10-23T08:36:39.375Z,100311.13
2022-10-23T08:38:41.807Z,100312.31
2022-10-23T08:40:48.703Z,100310.41
2022-10-23T08:43:12.149Z,100313.03
2022-10-23T08:46:04.136Z,100321.75
2022-10-23T08:48:38.250Z,100314.31
2022-10-23T08:51:12.898Z,100323.00
2022-10-23T08:53:18.149Z,100326.81
2022-10-23T08:55:22.962Z,100332.56
2022-10-23T08:57:33.581Z,100335.69
2022-10-23T08:59:44.391Z,100345.50
2022-10-23T09:02:04.848Z,100346.38
2022-10-23T09:04:07.292Z,100341.34
2022-10-23T09:06:20.359Z,100343.84
2022-10-23T09:08:32.032Z,100345.28
2022-10-23T09:10:56.887Z,100351.41
2022-10-23T09:13:29.188Z,100348.75
2022-10-23T09:15:41.765Z,100343.09
2022-10-23T09:17:47.999Z,100349.41
2022-10-23T09:19:59.299Z,100354.59
2022-10-23T09:22:01.668Z,100352.59
2022-10-23T09:24:04.458Z,100350.53
2022-10-23T09:26:18.590Z,100356.44
2022-10-23T09:28:30.423Z,100356.66
2022-10-23T09:30:34.015Z,100358.16
2022-10-23T09:32:38.463Z,100360.97
2022-10-23T09:34:54.748Z,100361.13
2022-10-23T09:37:00.201Z,100357.09
2022-10-23T09:39:02.426Z,100365.25
2022-10-23T09:41:16.184Z,100365.81
2022-10-23T09:43:23.473Z,100366.28
2022-10-23T09:45:34.968Z,100369.00
2022-10-23T09:47:41.399Z,100367.06
2022-10-23T09:49:49.232Z,100365.16
2022-10-23T09:51:54.508Z,100377.84
2022-10-23T09:54:00.858Z,100364.19
2022-10-23T09:56:24.471Z,100370.41
2022-10-23T09:58:54.844Z,100368.75
2022-10-23T10:00:57.574Z,100365.47
2022-10-23T10:03:22.707Z,100363.81
2022-10-23T10:05:39.894Z,100362.75
2022-10-23T10:08:03.618Z,100363.72
2022-10-23T10:10:13.911Z,100363.63
2022-10-23T10:12:45.897Z,100362.94
2022-10-23T10:15:05.272Z,100359.72
2022-10-23T10:17:15.083Z,100363.09
2022-10-23T10:19:35.219Z,100361.41
2022-10-23T10:21:50.614Z,100354.59
2022-10-23T10:24:00.697Z,100356.09
2022-10-23T10:26:02.669Z,100354.41
2022-10-23T10:28:20.914Z,100349.72
2022-10-23T10:30:25.007Z,100362.25
2022-10-23T10:32:43.504Z,100356.97
2022-10-23T10:35:19.397Z,100355.03
2022-10-23T10:38:02.998Z,100355.03
2022-10-23T10:40:34.801Z,100363.63
2022-10-23T10:42:58.652Z,100354.41
2022-10-23T10:45:01.816Z,100355.28
2022-10-23T10:47:31.728Z,100349.16
2022-10-23T10:49:40.888Z,100351.69
2022-10-23T10:52:06.862Z,100345.84
2022-10-23T10:54:21.153Z,100348.38
2022-10-23T10:56:28.156Z,100356.53
2022-10-23T10:58:42.211Z,100349.28
2022-10-23T11:00:46.810Z,100343.66
2022-10-23T11:02:48.633Z,100339.78
2022-10-23T11:04:52.971Z,100338.91
2022-10-23T11:06:58.179Z,100331.63
2022-10-23T11:09:20.606Z,100333.59
2022-10-23T11:11:32.572Z,100331.63
2022-10-23T11:13:40.501Z,100338.03
2022-10-23T11:15:44.307Z,100334.44
2022-10-23T11:17:55.508Z,100342.00
2022-10-23T11:20:18.658Z,100343.56
2022-10-23T11:22:29.704Z,100345.66
2022-10-23T11:24:49.468Z,100341.13
2022-10-23T11:27:10.849Z,100343.41
2022-10-23T11:29:27.917Z,100345.22
2022-10-23T11:31:59.852Z,100342.34
2022-10-23T11:34:53.050Z,100335.88
2022-10-23T11:36:59.031Z,100325.94
2022-10-23T11:39:22.336Z,100327.59
2022-10-23T11:41:34.007Z,100325.50
2022-10-23T11:43:50.642Z,100315.66
2022-10-23T11:45:52.602Z,100321.66
2022-10-23T11:48:22.951Z,100313.56
2022-10-23T11:50:34.342Z,100315.94
2022-10-23T11:52:45.618Z,100308.56
2022-10-23T11:55:22.814Z,100307.69
2022-10-23T11:57:25.399Z,100312.50
2022-10-23T11:59:50.118Z,100307.16
2022-10-23T12:01:55.715Z,100301.88
2022-10-23T12:04:19.043Z,100296.53
2022-10-23T12:06:31.508Z,100303.13
2022-10-23T12:08:40.599Z,100297.53
2022-10-23T12:10:48.326Z,100291.00
2022-10-23T12:13:06.275Z,100288.13
2022-10-23T12:15:19.182Z,100288.38
2022-10-23T12:17:23.920Z,100291.28
2022-10-23T12:19:30.753Z,100301.78
2022-10-23T12:21:35.900Z,100300.13
2022-10-23T12:24:09.778Z,100307.25
2022-10-23T12:26:23.638Z,100301.88
2022-10-23T12:28:38.280Z,100293.03
2022-10-23T12:30:50.811Z,100295.31
2022-10-23T12:33:20.866Z,100289.16
2022-10-23T12:35:26.055Z,100292.94
2022-10-23T12:37:46.365Z,100291.78
2022-10-23T12:39:59.363Z,100288.56
2022-10-23T12:42:01.345Z,100287.41
2022-10-23T12:44:05.341Z,100287.06
2022-10-23T12:46:33.983Z,100280.38
2022-10-23T12:48:36.528Z,100276.81
2022-10-23T12:50:38.562Z,100269.06
2022-10-23T12:53:10.111Z,100267.88
2022-10-23T12:55:14.648Z,100263.44
2022-10-23T12:57:25.841Z,100271.78
2022-10-23T12:59:39.344Z,100266.34
2022-10-23T13:01:43.347Z,100268.09
2022-10-23T13:03:46.203Z,100258.66
2022-10-23T13:05:50.749Z,100265.38
2022-10-23T13:07:53.181Z,100261.66
2022-10-23T13:10:04.990Z,100260.13
2022-10-23T13:15:58.314Z,100257.47
2022-10-23T13:18:03.700Z,100246.69
2022-10-23T13:20:35.362Z,100245.53
2022-10-23T13:22:40.546Z,100242.59
2022-10-23T13:24:43.259Z,100237.00
2022-10-23T13:26:45.594Z,100232.22
2022-10-23T13:28:47.960Z,100223.84
2022-10-23T13:31:08.199Z,100219.47
2022-10-23T13:33:21.979Z,100216.75
2022-10-23T13:35:24.783Z,100225.91
2022-10-23T13:37:30.685Z,100221.34
2022-10-23T13:39:34.272Z,100228.44
2022-10-23T13:41:40.110Z,100225.78
2022-10-23T13:43:43.235Z,100223.66
2022-10-23T13:45:45.625Z,100227.38
2022-10-23T13:47:47.864Z,100228.25
2022-10-23T13:49:50.179Z,100223.31
2022-10-23T13:51:55.368Z,100221.44
2022-10-23T13:53:57.782Z,100232.53
2022-10-23T13:55:59.859Z,100228.16
2022-10-23T13:58:02.760Z,100227.16
2022-10-23T14:00:05.404Z,100222.59
2022-10-23T14:02:25.118Z,100217.25
2022-10-23T14:04:27.593Z,100219.72
2022-10-23T14:06:30.552Z,100216.00
2022-10-23T14:08:32.532Z,100218.72
2022-10-23T14:10:35.187Z,100217.06
2022-10-23T14:12:44.383Z,100206.66
2022-10-23T14:14:51.948Z,100205.66
2022-10-23T14:16:54.990Z,100212.97
2022-10-23T14:18:59.797Z,100214.91
2022-10-23T14:21:03.195Z,100217.25
2022-10-23T14:23:05.498Z,100218.91
2022-10-23T14:25:07.794Z,100213.56
2022-10-23T14:27:09.846Z,100217.06
2022-10-23T14:29:21.186Z,100218.13
2022-10-23T14:31:26.349Z,100219.59
2022-10-23T14:33:28.379Z,100214.38
2022-10-23T14:35:30.695Z,100221.63
2022-10-23T14:37:34.475Z,100215.31
2022-10-23T14:39:37.006Z,100211.63
2022-10-23T14:41:40.641Z,100214.44
2022-10-23T14:43:43.322Z,100213.78
2022-10-23T14:45:45.521Z,100210.16
2022-10-23T14:47:47.845Z,100206.09
2022-10-23T14:49:52.513Z,100197.22
2022-10-23T14:51:54.695Z,100195.38
2022-10-23T14:54:01.763Z,100200.81
2022-10-23T14:56:04.834Z,100197.34
2022-10-23T14:58:07.372Z,100202.00
2022-10-23T15:00:10.202Z,100201.22
2022-10-23T15:02:12.416Z,100195.84
2022-10-23T15:04:14.931Z,100199.56
2022-10-23T15:06:18.495Z,100200.81
2022-10-23T15:08:24.801Z,100200.91
2022-10-23T15:10:27.319Z,100209.94
2022-10-23T15:12:29.544Z,100211.72
2022-10-23T15:14:31.914Z,100211.78
2022-10-23T15:16:41.311Z,100202.75
2022-10-23T15:18:43.688Z,100196.44
2022-10-23T15:20:52.628Z,100200.41
2022-10-23T15:22:54.675Z,100205.94
2022-10-23T15:24:57.535Z,100204.22
2022-10-23T15:27:00.381Z,100197.97
2022-10-23T15:29:02.696Z,100200.75
2022-10-23T15:31:05.603Z,100206.38
2022-10-23T15:33:08.036Z,100206.47
2022-10-23T15:35:10.168Z,100208.59
2022-10-23T15:37:12.135Z,100212.38
2022-10-23T15:39:17.677Z,100208.19
2022-10-23T15:41:28.374Z,100202.25
2022-10-23T15:43:30.445Z,100205.94
2022-10-23T15:45:32.748Z,100207.97
2022-10-23T15:47:34.885Z,100198.34
2022-10-23T15:49:37.554Z,100203.00
2022-10-23T15:51:40.897Z,100202.31
2022-10-23T15:53:43.166Z,100206.09
2022-10-23T15:55:45.694Z,100206.34
2022-10-23T15:57:48.057Z,100201.19
2022-10-23T15:59:51.450Z,100197.19
2022-10-23T16:01:54.354Z,100208.31
2022-10-23T16:03:56.662Z,100214.03
2022-10-23T16:05:58.768Z,100212.53
2022-10-23T16:08:00.929Z,100212.72
2022-10-23T16:10:03.139Z,100214.72
2022-10-23T16:12:05.465Z,100211.41
2022-10-23T16:14:08.453Z,100210.78
2022-10-23T16:16:11.129Z,100221.00
2022-10-23T16:18:13.340Z,100223.91
2022-10-23T16:20:16.257Z,100215.06
2022-10-23T16:22:18.688Z,100218.97
2022-10-23T16:24:20.689Z,100214.59
2022-10-23T16:26:23.794Z,100216.56
2022-10-23T16:28:25.838Z,100209.59
2022-10-23T16:30:28.287Z,100204.44
2022-10-23T16:32:30.390Z,100207.50
2022-10-23T16:34:32.439Z,100198.72
2022-10-23T16:36:34.939Z,100205.72
2022-10-23T16:38:56.030Z,100207.81
2022-10-23T16:41:18.333Z,100209.81
2022-10-23T16:43:38.835Z,100202.63
2022-10-23T16:46:12.944Z,100208.25
2022-10-23T16:48:15.210Z,100210.22
2022-10-23T16:50:18.038Z,100213.91
2022-10-23T16:52:20.328Z,100210.47
2022-10-23T16:54:22.443Z,100207.00
2022-10-23T16:56:28.797Z,100203.47
2022-10-23T16:58:30.850Z,100201.75
2022-10-23T17:00:35.382Z,100201.97
2022-10-23T17:02:38.365Z,100204.75
2022-10-23T17:04:40.731Z,100203.25
2022-10-23T17:06:42.726Z,100201.66
2022-10-23T17:08:47.521Z,100197.28
2022-10-23T17:10:49.501Z,100198.31
2022-10-23T17:12:51.748Z,100198.44
2022-10-23T17:14:53.864Z,100198.69
2022-10-23T17:17:01.664Z,100194.63
2022-10-23T17:19:15.995Z,100196.47
2022-10-23T17:21:23.270Z,100195.69
2022-10-23T17:23:25.554Z,100203.97
2022-10-23T17:25:27.939Z,100203.00
2022-10-23T17:27:29.858Z,100206.75
2022-10-23T17:29:31.997Z,100208.59
2022-10-23T17:31:36.062Z,100203.34
2022-10-23T17:33:38.332Z,100201.75
2022-10-23T17:35:40.281Z,100201.03
2022-10-23T17:37:42.339Z,100195.78
2022-10-23T17:39:44.442Z,100195.03
2022-10-23T17:41:47.399Z,100192.50
2022-10-23T17:43:50.441Z,100197.03
2022-10-23T17:45:52.505Z,100196.31
2022-10-23T17:47:54.616Z,100199.19
2022-10-23T17:49:56.715Z,100201.25
2022-10-23T17:51:58.953Z,100198.69
2022-10-23T17:54:04.643Z,100194.38
2022-10-23T17:56:08.945Z,100193.66
2022-10-23T17:58:11.133Z,100202.84
2022-10-23T18:00:13.242Z,100205.59
2022-10-23T18:02:15.342Z,100205.59
2022-10-23T18:04:19.238Z,100216.53
2022-10-23T18:06:29.657Z,100217.63
2022-10-23T18:08:31.708Z,100226.63
2022-10-23T18:10:36.290Z,100230.47
2022-10-23T18:16:27.829Z,100223.59
2022-10-23T18:18:29.990Z,100232.44
2022-10-23T18:20:31.964Z,100233.47
2022-10-23T18:22:34.174Z,100224.63
2022-10-23T18:24:38.408Z,100226.63
2022-10-23T18:26:41.665Z,100225.88
2022-10-23T18:28:45.766Z,100223.31
2022-10-23T18:30:50.188Z,100219.91
2022-10-23T18:32:55.958Z,100220.94
2022-10-23T18:34:58.286Z,100211.03
2022-10-23T18:37:01.116Z,100220.97
2022-10-23T18:39:04.837Z,100222.81
2022-10-23T18:41:07.185Z,100221.09
2022-10-23T18:43:14.853Z,100219.44
2022-10-23T18:45:17.400Z,100210.59
2022-10-23T18:47:19.484Z,100208.16
2022-10-23T18:49:21.654Z,100215.09
2022-10-23T18:51:32.166Z,100211.88
2022-10-23T18:53:34.266Z,100199.16
2022-10-23T18:55:36.408Z,100202.28
2022-10-23T18:57:39.109Z,100198.78
2022-10-23T18:59:41.118Z,100192.69
2022-10-23T19:01:43.714Z,100183.72
2022-10-23T19:03:45.993Z,100188.41
2022-10-23T19:05:48.802Z,100173.25
2022-10-23T19:07:51.071Z,100181.72
2022-10-23T19:09:53.473Z,100178.22
2022-10-23T19:11:55.605Z,100176.56
2022-10-23T19:13:57.565Z,100166.50
2022-10-23T19:15:59.774Z,100170.91
2022-10-23T19:18:02.290Z,100163.88
2022-10-23T19:20:11.238Z,100168.34
2022-10-23T19:22:15.481Z,100170.78
2022-10-23T19:24:25.854Z,100176.69
2022-10-23T19:26:29.754Z,100176.75
2022-10-23T19:28:37.598Z,100172.81
2022-10-23T19:30:40.380Z,100176.47
2022-10-23T19:32:44.322Z,100171.63
2022-10-23T19:34:46.724Z,100181.59
2022-10-23T19:36:50.000Z,100186.84
2022-10-23T19:38:51.966Z,100192.78
2022-10-23T19:40:54.112Z,100186.22
2022-10-23T19:42:56.204Z,100181.34
2022-10-23T19:44:58.371Z,100177.31
2022-10-23T19:47:00.399Z,100174.50
2022-10-23T19:49:02.383Z,100177.84
2022-10-23T19:51:09.365Z,100171.47
2022-10-23T19:53:11.362Z,100169.47
2022-10-23T19:56:15.243Z,100166.91
2022-10-23T19:58:17.079Z,100163.00
2022-10-23T20:00:20.653Z,100163.13
2022-10-23T20:02:22.800Z,100162.16
2022-10-23T20:04:24.923Z,100163.28
2022-10-23T20:06:29.486Z,100159.81
2022-10-23T20:08:34.952Z,100156.56
2022-10-23T20:10:41.880Z,100153.09
2022-10-23T20:12:47.539Z,100153.19
2022-10-23T20:15:01.925Z,100146.00
2022-10-23T20:17:03.813Z,100146.09
2022-10-23T20:19:09.582Z,100149.53
2022-10-23T20:21:11.770Z,100147.25
2022-10-23T20:23:14.097Z,100144.13
2022-10-23T20:25:19.137Z,100144.19
2022-10-23T20:27:21.244Z,100145.81
2022-10-23T20:29:24.941Z,100142.13
2022-10-23T20:31:28.335Z,100145.84
2022-10-23T20:33:32.887Z,100143.00
2022-10-23T20:35:42.641Z,100137.44
2022-10-23T20:37:44.754Z,100138.16
2022-10-23T20:39:47.252Z,100137.09
2022-10-23T20:41:49.617Z,100140.53
2022-10-23T20:43:51.669Z,100130.56
2022-10-23T20:45:53.513Z,100136.63
2022-10-23T20:47:57.703Z,100139.09
2022-10-23T20:50:00.034Z,100136.41
2022-10-23T20:52:03.254Z,100126.44
2022-10-23T20:54:08.189Z,100134.94
2022-10-23T20:56:14.375Z,100123.88
2022-10-23T20:58:16.298Z,100130.00
2022-10-23T21:01:21.630Z,100137.50
2022-10-23T21:03:23.754Z,100146.44
2022-10-23T21:05:25.847Z,100139.34
2022-10-23T21:07:27.978Z,100139.91
2022-10-23T21:09:30.847Z,100139.34
2022-10-23T21:11:34.128Z,100136.56
2022-10-23T21:13:36.651Z,100147.13
2022-10-23T21:15:38.736Z,100136.41
2022-10-23T21:17:41.300Z,100132.94
2022-10-23T21:19:43.482Z,100130.19
2022-10-23T21:21:45.423Z,100121.88
2022-10-23T21:23:49.504Z,100140.16
2022-10-23T21:25:51.489Z,100142.69
2022-10-23T21:27:53.498Z,100132.88
2022-10-23T21:29:55.515Z,100130.81
2022-10-23T21:32:00.128Z,100130.00
2022-10-23T21:34:02.467Z,100132.00
2022-10-23T21:36:13.665Z,100126.50
2022-10-23T21:38:16.416Z,100124.59
2022-10-23T21:40:18.763Z,100125.41
2022-10-23T21:42:21.317Z,100127.94
2022-10-23T21:44:23.410Z,100133.31
2022-10-23T21:46:26.982Z,100134.25
2022-10-23T21:48:29.166Z,100130.22
2022-10-23T21:50:34.153Z,100135.63
2022-10-23T21:52:36.401Z,100132.97
2022-10-23T21:54:38.486Z,100131.06
2022-10-23T21:56:45.816Z,100134.13
2022-10-23T21:58:47.805Z,100131.25
2022-10-23T22:00:50.271Z,100126.22
2022-10-23T22:02:52.370Z,100123.00
2022-10-23T22:04:54.748Z,100126.69
2022-10-23T22:06:56.723Z,100131.06
2022-10-23T22:09:00.648Z,100133.16
2022-10-23T22:11:05.582Z,100123.56
2022-10-23T22:13:07.612Z,100127.72
2022-10-23T22:15:10.302Z,100130.66
2022-10-23T22:17:12.277Z,100125.34
2022-10-23T22:19:16.491Z,100121.66
2022-10-23T22:21:21.249Z,100121.72
2022-10-23T22:23:23.339Z,100120.16
2022-10-23T22:25:25.479Z,100114.94
2022-10-23T22:27:28.085Z,100127.63
2022-10-23T22:29:31.059Z,100114.78
2022-10-23T22:31:34.867Z,100120.16
2022-10-23T22:33:37.028Z,100115.44
2022-10-23T22:35:39.167Z,100121.88
2022-10-23T22:37:41.503Z,100124.75
2022-10-23T22:39:43.535Z,100117.59
2022-10-23T22:41:47.189Z,100115.75
2022-10-23T22:43:53.641Z,100120.31
2022-10-23T22:46:02.947Z,100113.78
2022-10-23T22:48:05.180Z,100114.66
2022-10-23T22:50:07.863Z,100109.25
2022-10-23T22:52:10.058Z,100092.19
2022-10-23T22:54:12.135Z,100086.63
2022-10-23T22:56:18.075Z,100083.19
2022-10-23T22:58:20.641Z,100085.72
2022-10-23T23:00:22.767Z,100089.47
2022-10-23T23:02:24.700Z,100083.94
2022-10-23T23:04:43.125Z,100083.03
2022-10-23T23:06:45.849Z,100085.72
2022-10-23T23:08:49.436Z,100076.69
2022-10-23T23:10:56.587Z,100078.97
2022-10-23T23:12:58.606Z,100084.59
2022-10-23T23:15:00.954Z,100091.78
2022-10-23T23:17:03.905Z,100085.38
2022-10-23T23:19:06.429Z,100098.84
2022-10-23T23:21:08.396Z,100090.72
2022-10-23T23:23:12.700Z,100092.28
2022-10-23T23:25:14.828Z,100087.41
2022-10-23T23:27:16.799Z,100087.41
2022-10-23T23:29:19.667Z,100091.81
2022-10-23T23:31:25.534Z,100090.13
2022-10-23T23:33:27.808Z,100087.56
2022-10-23T23:35:30.144Z,100091.25
2022-10-23T23:37:32.152Z,100086.88
2022-10-23T23:39:34.315Z,100098.72
2022-10-23T23:41:36.540Z,100091.53
2022-10-23T23:43:38.880Z,100097.59
2022-10-23T23:45:41.369Z,100093.69
2022-10-23T23:47:43.626Z,100093.69
2022-10-23T23:49:45.954Z,100094.44
2022-10-23T23:51:48.151Z,100100.69
2022-10-23T23:53:51.301Z,100097.00
2022-10-23T23:55:53.461Z,100105.44
2022-10-23T23:57:56.687Z,100101.53
2022-10-23T23:59:59.075Z,100103.59
